KLM100 LKPR-LRTR
Flight info
| Callsign | KLM100 |
|---|---|
| Flight time | N/A |
| Altitude | 31000 |
| Route | VOZ4B/30 VOZ DCT NELPA DCT PISAM DCT PESAT DCT BUG DCT TEGRI |
| Aircraft | B738/M-VGDW/C |
Departure
| Time | N/A |
|---|---|
| Airport | Václav Havel Airport Prague (LKPR) |
Arrival
| Time | 2026-04-24 19:23 |
|---|---|
| Airport | Timișoara Traian Vuia International Airport (LRTR) |
| Time | Latitude | Longitude | Altitude | Speed | Heading |
|---|---|---|---|---|---|
| 2026-04-24 18:54 | 46.49032 | 20.33452 | 30977 ft | 485 kts | 109° |
| 2026-04-24 18:55 | 46.45107 | 20.46900 | 30311 ft | 478 kts | 108° |
| 2026-04-24 18:55 | 46.43813 | 20.51321 | 29665 ft | 470 kts | 108° |
| 2026-04-24 18:56 | 46.42555 | 20.55612 | 28965 ft | 463 kts | 108° |
| 2026-04-24 18:56 | 46.41290 | 20.59917 | 28286 ft | 456 kts | 108° |
| 2026-04-24 18:56 | 46.40072 | 20.64057 | 27642 ft | 449 kts | 109° |
| 2026-04-24 18:56 | 46.38682 | 20.68773 | 26884 ft | 442 kts | 109° |
| 2026-04-24 18:57 | 46.37481 | 20.72840 | 26199 ft | 436 kts | 109° |
| 2026-04-24 18:57 | 46.36290 | 20.76865 | 25538 ft | 429 kts | 109° |
| 2026-04-24 18:57 | 46.35114 | 20.80833 | 24835 ft | 424 kts | 110° |
| 2026-04-24 18:57 | 46.33946 | 20.84786 | 23404 ft | 435 kts | 110° |
| 2026-04-24 18:58 | 46.32777 | 20.88705 | 22732 ft | 428 kts | 110° |
| 2026-04-24 18:58 | 46.31580 | 20.92738 | 21628 ft | 428 kts | 111° |
| 2026-04-24 18:58 | 46.30413 | 20.96652 | 20638 ft | 428 kts | 111° |
| 2026-04-24 18:58 | 46.29237 | 21.00592 | 19826 ft | 423 kts | 111° |
| 2026-04-24 18:59 | 46.27980 | 21.04470 | 18926 ft | 421 kts | 119° |
| 2026-04-24 18:59 | 46.26211 | 21.07856 | 18386 ft | 409 kts | 130° |
| 2026-04-24 18:59 | 46.24384 | 21.10938 | 18353 ft | 386 kts | 134° |
| 2026-04-24 18:59 | 46.22305 | 21.13354 | 17702 ft | 382 kts | 149° |
| 2026-04-24 19:00 | 46.19870 | 21.14882 | 16906 ft | 381 kts | 165° |
| 2026-04-24 19:00 | 46.17277 | 21.15459 | 15945 ft | 385 kts | 175° |
| 2026-04-24 19:00 | 46.14652 | 21.16412 | 15062 ft | 390 kts | 159° |
| 2026-04-24 19:00 | 46.12118 | 21.17782 | 15012 ft | 385 kts | 160° |
| 2026-04-24 19:01 | 46.09598 | 21.19091 | 14979 ft | 382 kts | 161° |
| 2026-04-24 19:01 | 46.07116 | 21.20373 | 14206 ft | 381 kts | 161° |
| 2026-04-24 19:01 | 46.04637 | 21.21650 | 13540 ft | 376 kts | 161° |
| 2026-04-24 19:01 | 46.02201 | 21.22905 | 12830 ft | 372 kts | 160° |
| 2026-04-24 19:02 | 45.99784 | 21.24149 | 12131 ft | 368 kts | 160° |
| 2026-04-24 19:02 | 45.97395 | 21.25378 | 11450 ft | 364 kts | 160° |
| 2026-04-24 19:02 | 45.95022 | 21.26596 | 10760 ft | 360 kts | 160° |
| 2026-04-24 19:02 | 45.92748 | 21.28105 | 10079 ft | 356 kts | 146° |
| 2026-04-24 19:03 | 45.90979 | 21.30416 | 9988 ft | 336 kts | 129° |
| 2026-04-24 19:03 | 45.89651 | 21.33274 | 9972 ft | 317 kts | 117° |
| 2026-04-24 19:03 | 45.88707 | 21.36211 | 9960 ft | 298 kts | 111° |
| 2026-04-24 19:03 | 45.88141 | 21.38976 | 9955 ft | 281 kts | 104° |
| 2026-04-24 19:04 | 45.87633 | 21.41704 | 9985 ft | 278 kts | 104° |
| 2026-04-24 19:04 | 45.87128 | 21.44427 | 10007 ft | 282 kts | 104° |
| 2026-04-24 19:04 | 45.86618 | 21.47176 | 10020 ft | 284 kts | 104° |
| 2026-04-24 19:04 | 45.86107 | 21.49926 | 10020 ft | 284 kts | 104° |
| 2026-04-24 19:05 | 45.85603 | 21.52647 | 10003 ft | 279 kts | 104° |
| 2026-04-24 19:05 | 45.85246 | 21.55320 | 9964 ft | 265 kts | 99° |
| 2026-04-24 19:05 | 45.84934 | 21.57859 | 9961 ft | 252 kts | 99° |
| 2026-04-24 19:05 | 45.84629 | 21.60342 | 9983 ft | 250 kts | 99° |
| 2026-04-24 19:06 | 45.84327 | 21.62803 | 10009 ft | 254 kts | 99° |
| 2026-04-24 19:06 | 45.84010 | 21.65385 | 9962 ft | 252 kts | 100° |
| 2026-04-24 19:06 | 45.83681 | 21.68010 | 9571 ft | 255 kts | 102° |
| 2026-04-24 19:06 | 45.83143 | 21.70431 | 9300 ft | 253 kts | 110° |
| 2026-04-24 19:07 | 45.82550 | 21.72777 | 9027 ft | 251 kts | 111° |
| 2026-04-24 19:07 | 45.81837 | 21.75063 | 8520 ft | 249 kts | 115° |
| 2026-04-24 19:07 | 45.81113 | 21.77301 | 7877 ft | 248 kts | 115° |
| 2026-04-24 19:07 | 45.80391 | 21.79525 | 7278 ft | 245 kts | 115° |
| 2026-04-24 19:08 | 45.79679 | 21.81719 | 6680 ft | 243 kts | 115° |
| 2026-04-24 19:08 | 45.78968 | 21.83907 | 6087 ft | 240 kts | 115° |
| 2026-04-24 19:08 | 45.78263 | 21.86075 | 5496 ft | 238 kts | 115° |
| 2026-04-24 19:08 | 45.77568 | 21.88215 | 5055 ft | 236 kts | 115° |
| 2026-04-24 19:09 | 45.76865 | 21.90379 | 5019 ft | 234 kts | 115° |
| 2026-04-24 19:09 | 45.76181 | 21.92483 | 5013 ft | 235 kts | 115° |
| 2026-04-24 19:09 | 45.75493 | 21.94599 | 5012 ft | 236 kts | 115° |
| 2026-04-24 19:09 | 45.74794 | 21.96748 | 5011 ft | 236 kts | 115° |
| 2026-04-24 19:10 | 45.74098 | 21.98886 | 5027 ft | 240 kts | 115° |
| 2026-04-24 19:10 | 45.73387 | 22.01071 | 5009 ft | 238 kts | 115° |
| 2026-04-24 19:10 | 45.72693 | 22.03205 | 5009 ft | 236 kts | 114° |
| 2026-04-24 19:10 | 45.71976 | 22.05337 | 5010 ft | 234 kts | 115° |
| 2026-04-24 19:11 | 45.71364 | 22.07148 | 5011 ft | 234 kts | 115° |
| 2026-04-24 19:11 | 45.70673 | 22.09193 | 5011 ft | 235 kts | 115° |
| 2026-04-24 19:11 | 45.69967 | 22.11281 | 5010 ft | 235 kts | 115° |
| 2026-04-24 19:11 | 45.69255 | 22.13389 | 5010 ft | 235 kts | 115° |
| 2026-04-24 19:12 | 45.68480 | 22.15461 | 4998 ft | 235 kts | 126° |
| 2026-04-24 19:12 | 45.67244 | 22.16960 | 5018 ft | 237 kts | 152° |
| 2026-04-24 19:12 | 45.65651 | 22.17594 | 5015 ft | 238 kts | 177° |
| 2026-04-24 19:12 | 45.64010 | 22.17214 | 5015 ft | 238 kts | 202° |
| 2026-04-24 19:13 | 45.63044 | 22.16422 | 5015 ft | 238 kts | 219° |
| 2026-04-24 19:13 | 45.61784 | 22.13911 | 5015 ft | 236 kts | 252° |
| 2026-04-24 19:13 | 45.61587 | 22.11588 | 5015 ft | 235 kts | 277° |
| 2026-04-24 19:13 | 45.61955 | 22.09346 | 4871 ft | 232 kts | 289° |
| 2026-04-24 19:14 | 45.62475 | 22.07142 | 4601 ft | 232 kts | 290° |
| 2026-04-24 19:14 | 45.62999 | 22.04942 | 4342 ft | 232 kts | 290° |
| 2026-04-24 19:14 | 45.63521 | 22.02746 | 4096 ft | 231 kts | 290° |
| 2026-04-24 19:14 | 45.64037 | 22.00572 | 3853 ft | 231 kts | 290° |
| 2026-04-24 19:15 | 45.64557 | 21.98382 | 3609 ft | 230 kts | 290° |
| 2026-04-24 19:15 | 45.65072 | 21.96211 | 3367 ft | 230 kts | 290° |
| 2026-04-24 19:15 | 45.65601 | 21.94082 | 3128 ft | 229 kts | 292° |
| 2026-04-24 19:15 | 45.66193 | 21.91921 | 3032 ft | 229 kts | 292° |
| 2026-04-24 19:16 | 45.67321 | 21.87654 | 3011 ft | 228 kts | 292° |
| 2026-04-24 19:16 | 45.67879 | 21.85543 | 3011 ft | 228 kts | 292° |
| 2026-04-24 19:16 | 45.68423 | 21.83392 | 3010 ft | 229 kts | 290° |
| 2026-04-24 19:17 | 45.68947 | 21.81184 | 3011 ft | 229 kts | 290° |
| 2026-04-24 19:17 | 45.69466 | 21.78991 | 3011 ft | 229 kts | 290° |
| 2026-04-24 19:17 | 45.69976 | 21.76836 | 3011 ft | 229 kts | 290° |
| 2026-04-24 19:17 | 45.70488 | 21.74676 | 3011 ft | 229 kts | 290° |
| 2026-04-24 19:18 | 45.71019 | 21.72531 | 3010 ft | 228 kts | 292° |
| 2026-04-24 19:18 | 45.71585 | 21.70383 | 3011 ft | 229 kts | 292° |
| 2026-04-24 19:18 | 45.72147 | 21.68256 | 3011 ft | 228 kts | 292° |
| 2026-04-24 19:18 | 45.72713 | 21.66110 | 3011 ft | 228 kts | 292° |
| 2026-04-24 19:19 | 45.73275 | 21.63976 | 3011 ft | 228 kts | 292° |
| 2026-04-24 19:19 | 45.73837 | 21.61846 | 3011 ft | 228 kts | 292° |
| 2026-04-24 19:19 | 45.74395 | 21.59729 | 3011 ft | 228 kts | 292° |
| 2026-04-24 19:19 | 45.74956 | 21.57599 | 3011 ft | 228 kts | 292° |
| 2026-04-24 19:20 | 45.75515 | 21.55478 | 3067 ft | 225 kts | 292° |
| 2026-04-24 19:20 | 45.76014 | 21.53399 | 2987 ft | 211 kts | 290° |
| 2026-04-24 19:20 | 45.76497 | 21.51348 | 2433 ft | 221 kts | 290° |
| 2026-04-24 19:20 | 45.76994 | 21.49241 | 2561 ft | 213 kts | 290° |
| 2026-04-24 19:21 | 45.77423 | 21.47404 | 2456 ft | 175 kts | 291° |
| 2026-04-24 19:21 | 45.77810 | 21.45894 | 2202 ft | 155 kts | 292° |
| 2026-04-24 19:21 | 45.78220 | 21.44487 | 1689 ft | 155 kts | 295° |
| 2026-04-24 19:21 | 45.78626 | 21.43098 | 1509 ft | 146 kts | 294° |
| 2026-04-24 19:22 | 45.79019 | 21.41747 | 1403 ft | 145 kts | 298° |
| 2026-04-24 19:22 | 45.79392 | 21.40261 | 987 ft | 147 kts | 288° |
| 2026-04-24 19:22 | 45.79710 | 21.38751 | 746 ft | 137 kts | 290° |
| 2026-04-24 19:22 | 45.80043 | 21.37424 | 589 ft | 124 kts | 292° |
| 2026-04-24 19:23 | 45.80401 | 21.36105 | 377 ft | 127 kts | 291° |
| 2026-04-24 19:23 | 45.80730 | 21.34796 | 344 ft | 111 kts | 288° |
| 2026-04-24 19:23 | 45.80943 | 21.33952 | 345 ft | 41 kts | 290° |
| 2026-04-24 19:23 | 45.81007 | 21.33639 | 346 ft | 12 kts | 263° |
| 2026-04-24 19:24 | 45.80951 | 21.33561 | 346 ft | 8 kts | 200° |
| 2026-04-24 19:24 | 45.80919 | 21.33543 | 346 ft | 0 kts | 203° |
| 2026-04-24 19:24 | 45.80904 | 21.33533 | 346 ft | 4 kts | 209° |
| 2026-04-24 19:24 | 45.80869 | 21.33490 | 346 ft | 7 kts | 237° |
| 2026-04-24 19:25 | 45.80872 | 21.33387 | 346 ft | 11 kts | 289° |
| 2026-04-24 19:25 | 45.80906 | 21.33261 | 346 ft | 14 kts | 289° |
| 2026-04-24 19:25 | 45.80971 | 21.32990 | 346 ft | 31 kts | 290° |
| 2026-04-24 19:25 | 45.81038 | 21.32724 | 343 ft | 17 kts | 289° |
| 2026-04-24 19:26 | 45.81062 | 21.32630 | 343 ft | 10 kts | 287° |
| 2026-04-24 19:26 | 45.81090 | 21.32517 | 343 ft | 6 kts | 288° |
| 2026-04-24 19:26 | 45.81089 | 21.32474 | 343 ft | 8 kts | 236° |
| 2026-04-24 19:26 | 45.81058 | 21.32377 | 343 ft | 3 kts | 282° |
| 2026-04-24 19:27 | 45.81068 | 21.32333 | 343 ft | 0 kts | 289° |
| 2026-04-24 19:27 | 45.81088 | 21.32300 | 343 ft | 3 kts | 334° |
| 2026-04-24 19:27 | 45.81123 | 21.32280 | 343 ft | 6 kts | 341° |
| 2026-04-24 19:27 | 45.81132 | 21.32277 | 343 ft | 0 kts | 346° |